Nearby METAR Reports

 

CYGK - Kingston Arpt (m, Ontario, Canada
Distance from station: SSW 54km
Updated: 24/02/2018 22:00
Partly cloudy
Partly cloudy
 Wind from NE
Wind: NE 15 km/h
Temperature: -1°C
Wind Chill: -6°C
Dew Point: -4°C
Humidity: 80%
Barometer: 1023 hPa
Clouds: Partly cloudy
Visibility: 24 km
Cloud details: Partly cloudy 7620 m
2018/02/25 03:00 CYGK 250300Z 05008KT 15SM SCT250 M01/M04 A3021 RMK CI4 SLP236
CXKE - Kemptville, Ontario, Canada
Distance from station: ENE 68km
Updated: 24/02/2018 22:00

 Wind from E
Wind: E 2 km/h
Temperature: -3°C
Dew Point: -5°C
Humidity: 86%
2018/02/25 03:00 CXKE 250300Z AUTO 08001KT M03/M05 RMK AO1 SOG 03 8003 SLP249 T10281048
 
KART - Watertown, New York, USA
Distance from station: SSE 81km
Updated: 24/02/2018 21:56
Clear
Clear
 Wind from ENE
Wind: ENE 9 km/h
Temperature: -2°C
Wind Chill: -6°C
Dew Point: -3°C
Humidity: 93%
Barometer: 1023.7 hPa
Clouds: Clear
Visibility: 16 km
2018/02/25 02:56 KART 250256Z AUTO 07005KT 10SM CLR M02/M03 A3023 RMK AO2 SLP240 T10171033 50000
KGTB - Fort Drum/Wheele, New York, USA
Distance from station: SE 85km
Updated: 24/02/2018 21:56
Clear
Clear
 Wind from ENE
Wind: ENE 11 km/h
Temperature: -1°C
Wind Chill: -5°C
Dew Point: -4°C
Humidity: 80%
Barometer: 1022.7 hPa
Clouds: Clear
Visibility: 16 km
2018/02/25 02:56 KGTB 250256Z AUTO 06006KT 10SM CLR M01/M04 A3020 RMK AO2 SLP235 T10151040 58001
 
CYOW - Ottawa Intl, Ontario, Canada
Distance from station: NE 90km
Updated: 24/02/2018 22:00
Mostly cloudy
Mostly cloudy
 Wind from ENE
Wind: ENE 13 km/h
Temperature: -3°C
Wind Chill: -7°C
Dew Point: -6°C
Humidity: 80%
Barometer: 1025.1 hPa
Clouds: Mostly cloudy
Visibility: 24 km
Cloud details: Mostly cloudy 7620 m
2018/02/25 03:00 CYOW 250300Z 07007KT 15SM BKN250 M03/M06 A3027 RMK CI6 SLP256
CYTR - Trenton (can Mil, Ontario, Canada
Distance from station: SW 110km
Updated: 24/02/2018 22:00
Overcast
Overcast
 Wind from E
Wind: E 9 km/h
Temperature: 1°C
Wind Chill: -2°C
Dew Point: -3°C
Humidity: 75%
Barometer: 1022.7 hPa
Clouds: Overcast
Visibility: 24 km
Cloud details: Overcast 3658 m
2018/02/25 03:00 CYTR 250300Z 08005KT 15SM OVC120 01/M03 A3020 RMK AS8 SLP232
 
CWQP - Point Petre (mar, Ontario, Canada
Distance from station: SW 112km
Updated: 24/02/2018 22:00

 Wind from E
Wind: E 30 km/h
Temperature: 1°C
Wind Chill: -5°C
Dew Point: -2°C
Humidity: 81%
2018/02/25 03:00 CWQP 250300Z AUTO 08016KT 01/M02 RMK AO1 SOG 01 8006 PK WND 06022/0209 SLP230 T00071023 50011
CYND - Gatineau Airport, Quebec, Canada
Distance from station: NNE 113km
Updated: 24/02/2018 21:00
NOT Current
Few Clouds
Few Clouds
 Wind from NE
Wind: NE 4 km/h
Temperature: -4°C
Dew Point: -6°C
Humidity: 86%
Barometer: 1025.7 hPa
Clouds: Few Clouds
Visibility: 24 km
Cloud details: Few Clouds 7925 m
2018/02/25 02:00 CYND 250200Z 05002KT 15SM FEW260 M04/M06 A3029 RMK CI2 LAST STFD OBS/NEXT 251200 UTC SLP263
 
KMSS - Massena, New York, USA
Distance from station: ENE 123km
Updated: 24/02/2018 21:53
Clear
Clear
 Wind from E
Wind: E 6 km/h
Temperature: -3°C
Dew Point: -5°C
Humidity: 86%
Barometer: 1026.1 hPa
Clouds: Clear
Visibility: 16 km
2018/02/25 02:53 KMSS 250253Z AUTO 08003KT 10SM CLR M03/M05 A3030 RMK AO2 SLP265 T10331050 50009 $
CWRK - Bancroft Autob, Ontario, Canada
Distance from station: WNW 126km
Updated: 24/02/2018 22:00

 Wind from ESE
Wind: ESE 7 km/h
Temperature: -2°C
Wind Chill: -6°C
Dew Point: -5°C
Humidity: 80%
2018/02/25 03:00 CWRK 250300Z AUTO 11004KT M02/M05 RMK AO1 SOG 07 8004 SLP233 T10211054
 
CXHF - High Falls Cs (a, Quebec, Canada
Distance from station: NNE 141km
Updated: 24/02/2018 22:00

 
Temperature: -7°C
Dew Point: -7°C
Humidity: 100%
2018/02/25 03:00 CXHF 250300Z AUTO M07/M07 RMK AO1 T10661070
KFZY - Fulton, New York, USA
Distance from station: S 147km
Updated: 24/02/2018 21:54
Overcast
Overcast
 Wind from E
Wind: E 6 km/h
Temperature: 0°C
Dew Point: -2°C
Humidity: 87%
Barometer: 1022.7 hPa
Clouds: Overcast
Visibility: 16 km
Cloud details: Overcast 3658 m
2018/02/25 02:54 KFZY 250254Z AUTO 09003KT 10SM OVC120 00/M02 A3020 RMK AO2 SLP230 T00001022 58006
 
CYWA - Petawawa, Ontario, Canada
Distance from station: NNW 160km
Updated: 24/02/2018 22:00
Clear
Clear
 Wind from ESE
Wind: ESE 4 km/h
Temperature: -5°C
Dew Point: -7°C
Humidity: 86%
Barometer: 1024.4 hPa
Clouds: Clear
Visibility: 14 km
2018/02/25 03:00 CYWA 250300Z AUTO 11002KT 9SM CLR M05/M07 A3025 RMK SLP252
CWNC - Cobourg (mars), Ontario, Canada
Distance from station: WSW 164km
Updated: 24/02/2018 22:00

 Wind from E
Wind: E 13 km/h
Temperature: 1°C
Wind Chill: -3°C
Dew Point: -2°C
Humidity: 81%
2018/02/25 03:00 CWNC 250300Z AUTO 10007KT 01/M02 RMK AO1 SOG 01 8007 SLP219 T00131015
 
CYPQ - Peterborough Arp, Ontario, Canada
Distance from station: WSW 167km
Updated: 24/02/2018 22:00
Overcast
Overcast
 Wind from ESE
Wind: ESE 7 km/h
Temperature: 1°C
Wind Chill: -2°C
Dew Point: -2°C
Humidity: 81%
Barometer: 1021.3 hPa
Clouds: Overcast
Visibility: 14 km
Cloud details: Overcast 884 m
2018/02/25 03:00 CYPQ 250300Z AUTO 12004KT 9SM OVC029 01/M02 A3016 RMK SLP223
CWBZ - St Anicet, Quebec, Canada
Distance from station: ENE 172km
Updated: 24/02/2018 22:00

 Wind from NE
Wind: NE 9 km/h
Temperature: -2°C
Wind Chill: -6°C
Dew Point: -5°C
Humidity: 80%
2018/02/25 03:00 CWBZ 250300Z AUTO 05005KT M02/M05 RMK AO1 SLP263 T10191054 50008
 
KSLK - Saranac Lake, New York, USA
Distance from station: E 174km
Updated: 24/02/2018 21:51
Clear
Clear
 Wind from NNE
Wind: NNE 6 km/h
Temperature: -4°C
Dew Point: -5°C
Humidity: 93%
Barometer: 1022.4 hPa
Clouds: Clear
Visibility: 16 km
2018/02/25 02:51 KSLK 250251Z AUTO 02003KT 10SM CLR M04/M05 A3019 RMK AO2 SLP243 I1000 I3000 T10441050 50006
KSYR - Syracuse, New York, USA
Distance from station: S 174km
Updated: 24/02/2018 21:54
Overcast
Overcast
 Wind from E
Wind: E 7 km/h
Temperature: 1°C
Wind Chill: -2°C
Dew Point: -1°C
Humidity: 87%
Barometer: 1022.7 hPa
Clouds: Overcast
Visibility: 16 km
Cloud details: Overcast 3658 m
2018/02/25 02:54 KSYR 250254Z 09004KT 10SM OVC120 01/M01 A3020 RMK AO2 SLP227 T00061006 58004
 
CTNK - Algonquin Park, Ontario, Canada
Distance from station: WNW 177km
Updated: 24/02/2018 22:00

 Wind from E
Wind: E 4 km/h
Temperature: -4°C
Dew Point: -7°C
Humidity: 80%
2018/02/25 03:00 CTNK 250300Z AUTO 09002KT M04/M07 RMK AO1 SOG 15 8006 SLP229 T10381070
KRME - Rome/Griffiss Af, New York, USA
Distance from station: SSE 179km
Updated: 24/02/2018 21:53
Clear
Clear
 Wind from calm
Wind: Calm
Temperature: -2°C
Dew Point: -3°C
Humidity: 93%
Barometer: 1024 hPa
Clouds: Clear
Visibility: 16 km
2018/02/25 02:53 KRME 250253Z AUTO 00000KT 10SM CLR M02/M03 A3024 RMK AO2 SLP241 T10171028 51008